Latest Weather Observations for Avalon

IDV60901

Issued at 4:11 am EST Sunday 21 July 2019 (issued every 10 minutes, with the page automatically refreshed every 10 minutes)

About weather observations | Map of Melbourne area stations | Latest observations for Melbourne area | Other Formats
Station Details ID: 087113 Name: AVALON AIRPORT Lat: -38.03 Lon: 144.48 Height: 10.6 m
Data from the previous 72 hours. | See also: Recent months at Avalon
Date/Time
EST
Temp
°C
App
Temp
°C
Dew
Point
°C
Rel
Hum
%
Delta-T
°C
Wind Press
QNH
hPa
Press
MSL
hPa
Rain since
9am
mm
Dir  Spd
km/h
Gust
km/h
Spd
kts
Gust
kts
21/04:05am 13.0 2.4 4.9 58 3.8 N 50 74 27 40 1005.5 1005.5 0.0
21/04:00am 12.8 2.9 5.0 59 3.6 N 46 59 25 32 1005.9 1005.9 0.0
21/03:38am 12.8 3.5 5.0 59 3.6 N 43 63 23 34 1006.0 1006.0 0.0
21/03:30am 12.9 3.4 5.1 59 3.6 N 44 61 24 33 1006.4 1006.4 0.0
21/03:12am 13.2 3.0 5.1 58 3.8 N 48 67 26 36 1006.5 1006.5 0.0
21/03:00am 13.2 2.7 5.4 59 3.7 N 50 65 27 35 1006.5 1006.5 0.0
21/02:30am 12.9 5.6 5.3 60 3.5 N 33 56 18 30 1006.9 1006.9 0.0
21/02:25am 13.1 6.4 5.8 61 3.4 N 30 56 16 30 1007.0 1007.0 0.0
21/02:24am 12.9 6.6 5.6 61 3.4 N 28 44 15 24 1007.1 1007.1 0.0
21/02:00am 11.0 6.8 5.7 70 2.5 NE 17 22 9 12 1007.7 1007.7 0.0
21/01:30am 12.3 6.0 5.9 65 3.0 NNE 28 41 15 22 1008.1 1008.1 0.0
21/01:02am 12.9 5.9 5.8 62 3.3 NNE 32 50 17 27 1008.0 1008.0 0.0
21/01:00am 13.2 6.0 6.1 62 3.4 NNE 33 50 18 27 1008.0 1008.0 0.0
21/12:30am 12.6 4.4 6.4 66 2.9 N 39 57 21 31 1008.1 1008.1 0.0
21/12:19am 12.5 5.0 6.5 67 2.9 N 35 54 19 29 1008.3 1008.3 0.0
21/12:00am 12.5 5.0 6.5 67 2.9 N 35 50 19 27 1008.7 1008.7 0.0
 
Date/Time
EST
Temp
°C
App
Temp
°C
Dew
Point
°C
Rel
Hum
%
Delta-T
°C
Wind Press
QNH
hPa
Press
MSL
hPa
Rain since
9am
mm
Dir  Spd
km/h
Gust
km/h
Spd
kts
Gust
kts
20/11:30pm 12.2 6.2 6.9 70 2.5 NNE 28 39 15 21 1009.3 1009.3 0.0
20/11:00pm 12.2 5.6 7.7 74 2.2 NNE 32 41 17 22 1009.9 1009.9 0.0
20/10:30pm 12.1 5.4 8.0 76 2.0 NNE 33 43 18 23 1010.5 1010.5 0.0
20/10:00pm 12.2 6.1 8.1 76 2.0 NNE 30 37 16 20 1011.0 1011.0 0.0
20/09:30pm 11.9 5.8 8.2 78 1.8 NNE 30 39 16 21 1011.2 1011.2 0.0
20/09:00pm 12.3 6.6 8.2 76 2.0 NNE 28 35 15 19 1011.2 1011.2 0.0
20/08:30pm 11.7 8.3 7.6 76 2.0 N 15 26 8 14 1011.5 1011.5 0.0
20/08:00pm 11.2 8.4 6.9 75 2.0 NNE 11 15 6 8 1011.9 1011.9 0.0
20/07:30pm 12.0 8.1 7.1 72 2.4 N 17 24 9 13 1012.0 1012.0 0.0
20/07:00pm 12.6 8.7 7.3 70 2.6 N 17 24 9 13 1012.1 1012.1 0.0
20/06:30pm 13.2 8.4 7.2 67 2.9 N 22 30 12 16 1012.1 1012.1 0.0
20/06:00pm 13.5 9.0 7.1 65 3.1 N 20 30 11 16 1012.2 1012.2 0.0
20/05:30pm 14.0 9.6 7.5 65 3.2 NNE 20 32 11 17 1012.2 1012.2 0.0
20/05:00pm 14.8 9.3 7.6 62 3.6 NNE 26 35 14 19 1012.1 1012.1 0.0
20/04:30pm 15.4 9.5 7.7 60 3.8 NNE 28 39 15 21 1012.4 1012.4 0.0
20/04:00pm 15.9 10.0 7.7 58 4.1 NNE 28 39 15 21 1013.0 1013.0 0.0
20/03:30pm 16.3 9.6 7.5 56 4.4 NNE 32 41 17 22 1013.2 1013.2 0.0
20/03:00pm 16.8 10.9 7.7 55 4.6 NNE 28 37 15 20 1013.5 1013.5 0.0
20/02:30pm 16.9 10.7 7.8 55 4.6 NNE 30 37 16 20 1013.9 1013.9 0.0
20/02:00pm 17.0 11.5 7.6 54 4.7 NNE 26 37 14 20 1014.2 1014.2 0.0
20/01:30pm 16.5 11.0 7.4 55 4.5 NNE 26 35 14 19 1014.5 1014.5 0.0
20/01:00pm 16.2 10.3 7.7 57 4.3 NNE 28 39 15 21 1015.3 1015.3 0.0
20/12:30pm 15.4 9.7 8.2 62 3.6 NNE 28 37 15 20 1016.1 1016.1 0.0
20/12:00pm 15.1 9.8 8.6 65 3.3 NNE 26 35 14 19 1016.9 1016.9 0.0
20/11:30am 14.6 8.6 8.8 68 2.9 NNE 30 39 16 21 1017.6 1017.6 0.0
20/11:00am 14.0 8.5 9.0 72 2.5 NNE 28 39 15 21 1018.0 1018.0 0.0
20/10:30am 13.3 8.1 9.0 75 2.2 NNE 26 37 14 20 1018.2 1018.2 0.0
20/10:00am 12.8 8.4 9.1 78 1.9 NNE 22 33 12 18 1018.2 1018.2 0.0
20/09:30am 11.9 7.1 8.9 82 1.5 N 24 30 13 16 1018.4 1018.4 0.0
20/09:00am 11.1 7.0 8.8 86 1.1 N 20 26 11 14 1018.6 1018.6 0.0
20/08:30am 10.0 5.8 8.4 90 0.8 NNE 20 28 11 15 1018.5 1018.5 0.0
20/08:00am 9.5 4.1 8.1 91 0.7 NNE 26 35 14 19 1018.4 1018.4 0.0
20/07:30am 9.4 4.0 8.0 91 0.7 N 26 32 14 17 1018.3 1018.3 0.0
20/07:00am 8.8 4.7 8.0 95 0.4 NNE 19 24 10 13 1018.3 1018.3 0.0
20/06:30am 8.1 4.0 8.0 99 0.0 NNE 19 22 10 12 1018.1 1018.1 0.0
20/06:00am 5.9 2.5 5.8 99 0.0 NE 13 15 7 8 1018.1 1018.1 0.0
20/05:30am 5.4 1.5 5.3 99 0.0 ENE 15 17 8 9 1018.4 1018.4 0.0
20/05:00am 6.5 2.8 6.4 99 0.0 ENE 15 19 8 10 1018.5 1018.5 0.0
20/04:30am 6.2 3.6 6.1 99 0.0 ENE 9 13 5 7 1018.6 1018.6 0.0
20/04:00am 5.6 2.1 5.5 99 0.0 NE 13 17 7 9 1018.7 1018.7 0.0
20/03:30am 5.6 2.1 5.5 99 0.0 NE 13 15 7 8 1019.0 1019.0 0.0
20/03:00am 6.2 2.8 6.1 99 0.0 NE 13 15 7 8 1019.4 1019.4 0.0
20/02:30am 5.9 2.5 5.8 99 0.0 NE 13 15 7 8 1019.5 1019.5 0.0
20/02:00am 6.7 3.0 6.1 96 0.3 NNE 15 19 8 10 1019.6 1019.6 0.0
20/01:30am 7.3 4.2 7.2 99 0.0 NNE 13 19 7 10 1019.6 1019.6 0.0
20/01:00am 6.4 3.5 6.3 99 0.0 NNE 11 15 6 8 1020.0 1020.0 0.0
20/12:30am 5.9 2.7 5.2 95 0.3 NNE 11 17 6 9 1020.3 1020.3 0.0
20/12:00am 6.8 2.1 5.3 90 0.7 NNE 19 24 10 13 1020.5 1020.5 0.0
 
Date/Time
EST
Temp
°C
App
Temp
°C
Dew
Point
°C
Rel
Hum
%
Delta-T
°C
Wind Press
QNH
hPa
Press
MSL
hPa
Rain since
9am
mm
Dir  Spd
km/h
Gust
km/h
Spd
kts
Gust
kts
19/11:30pm 7.1 2.8 5.4 89 0.8 NNE 17 20 9 11 1020.6 1020.6 0.0
19/11:00pm 7.0 2.6 5.0 87 0.9 NNE 17 19 9 10 1020.8 1020.8 0.0
19/10:30pm 8.3 3.7 5.4 82 1.3 NNE 19 24 10 13 1020.9 1020.9 0.0
19/10:00pm 8.4 4.5 5.3 81 1.4 N 15 19 8 10 1020.9 1020.9 0.0
19/09:30pm 8.6 5.2 6.1 84 1.1 N 13 17 7 9 1021.0 1021.0 0.0
19/09:00pm 7.2 3.7 5.3 88 0.8 N 13 17 7 9 1021.1 1021.1 0.0
19/08:30pm 6.5 2.9 4.8 89 0.7 N 13 15 7 8 1021.2 1021.2 0.0
19/08:00pm 7.8 4.6 5.3 84 1.1 N 11 15 6 8 1021.0 1021.0 0.0
19/07:30pm 8.2 5.1 5.7 84 1.1 N 11 13 6 7 1020.8 1020.8 0.0
19/07:00pm 8.6 6.0 5.9 83 1.2 NNE 9 11 5 6 1020.7 1020.7 0.0
19/06:30pm 8.6 6.0 6.1 84 1.1 NNE 9 9 5 5 1020.7 1020.7 0.0
19/06:00pm 9.4 6.9 6.5 82 1.3 NE 9 11 5 6 1020.4 1020.4 0.0
19/05:30pm 11.0 10.2 6.4 73 2.2 CALM 0 0 0 0 1020.0 1020.0 0.0
19/05:00pm 12.6 10.7 6.6 67 2.9 WSW 6 7 3 4 1019.9 1019.9 0.0
19/04:30pm 13.5 11.3 6.1 61 3.5 W 7 11 4 6 1019.8 1019.8 0.0
19/04:00pm 14.0 11.4 6.1 59 3.8 W 9 13 5 7 1019.7 1019.7 0.0
19/03:30pm 13.8 10.9 6.4 61 3.5 WNW 11 15 6 8 1019.7 1019.7 0.0
19/03:00pm 13.5 10.5 6.1 61 3.5 WNW 11 20 6 11 1019.8 1019.8 0.0
19/02:30pm 13.9 11.4 6.7 62 3.5 WNW 9 17 5 9 1019.8 1019.8 0.0
19/02:00pm 14.0 10.6 6.1 59 3.8 WNW 13 22 7 12 1019.8 1019.8 0.0
19/01:30pm 14.0 9.8 5.9 58 3.8 WNW 17 22 9 12 1019.8 1019.8 0.0
19/01:00pm 13.8 9.4 6.4 61 3.5 W 19 24 10 13 1020.0 1020.0 0.0
19/12:30pm 13.8 9.0 5.7 58 3.8 WNW 20 26 11 14 1020.6 1020.6 0.0
19/12:00pm 13.5 10.1 7.7 68 2.8 WNW 15 22 8 12 1020.7 1020.7 0.0
19/11:30am 13.1 9.7 7.5 69 2.7 W 15 20 8 11 1021.3 1021.3 0.0
19/11:00am 12.4 8.6 7.7 73 2.3 WNW 17 20 9 11 1021.2 1021.2 0.0
19/10:30am 11.4 7.7 8.1 80 1.6 WNW 17 20 9 11 1021.4 1021.4 0.0
19/10:00am 10.5 7.4 8.8 89 0.8 WNW 15 19 8 10 1021.4 1021.4 0.0
19/09:30am 9.8 7.0 8.6 92 0.6 WNW 13 15 7 8 1021.4 1021.4 0.0
19/09:00am 9.3 7.1 9.2 99 0.0 WNW 11 15 6 8 1021.1 1021.1 0.2
19/08:30am 8.1 5.2 8.0 99 0.0 NW 13 15 7 8 1020.5 1020.5 0.2
19/08:00am 7.9 4.9 7.8 99 0.0 NW 13 15 7 8 1019.9 1019.9 0.2
19/07:30am 7.4 4.7 7.4 100 0.0 NW 11 13 6 7 1019.7 1019.7 0.2
19/07:00am 6.8 4.4 6.8 100 0.0 NW 9 13 5 7 1019.4 1019.4 0.2
19/06:30am 7.6 4.6 7.6 100 0.0 NW 13 17 7 9 1018.9 1018.9 0.2
19/06:00am 6.2 2.9 6.2 100 0.0 NNW 13 13 7 7 1018.6 1018.6 0.2
19/05:30am 6.8 4.4 6.8 100 0.0 NW 9 11 5 6 1018.2 1018.2 0.2
19/05:00am 7.7 5.5 7.7 100 0.0 WNW 9 11 5 6 1017.8 1017.8 0.2
19/04:30am 8.0 5.5 8.0 100 0.0 W 11 13 6 7 1017.6 1017.6 0.2
19/04:00am 8.4 5.9 8.3 99 0.0 WNW 11 15 6 8 1017.7 1017.7 0.2
19/03:30am 8.7 6.3 8.6 99 0.0 WNW 11 13 6 7 1017.4 1017.4 0.2
19/03:00am 9.9 7.4 9.8 99 0.1 WNW 13 15 7 8 1017.3 1017.3 0.2
19/02:30am 9.9 6.7 9.8 99 0.1 WNW 17 20 9 11 1017.1 1017.1 0.2
19/02:00am 10.9 7.2 10.3 96 0.3 WNW 20 24 11 13 1016.7 1016.7 0.2
19/01:30am 11.5 8.0 10.9 96 0.3 WNW 20 26 11 14 1016.5 1016.5 0.2
19/01:04am 11.3 7.9 10.4 94 0.5 NW 19 24 10 13 1016.0 1016.0 0.2
19/01:00am 11.3 7.8 10.2 93 0.6 NW 19 26 10 14 1016.0 1016.0 0.2
19/12:48am 11.6 6.7 9.9 89 0.9 W 26 32 14 17 1016.0 1016.0 0.2
19/12:30am 12.0 7.0 9.4 84 1.3 WNW 26 35 14 19 1015.6 1015.6 0.0
19/12:00am 13.0 6.6 8.5 74 2.2 NW 32 41 17 22 1014.6 1014.6 0.0
 
Date/Time
EST
Temp
°C
App
Temp
°C
Dew
Point
°C
Rel
Hum
%
Delta-T
°C
Wind Press
QNH
hPa
Press
MSL
hPa
Rain since
9am
mm
Dir  Spd
km/h
Gust
km/h
Spd
kts
Gust
kts
18/11:30pm 12.6 7.7 8.3 75 2.1 NW 24 32 13 17 1014.5 1014.5 0.0
18/11:00pm 12.4 7.4 8.1 75 2.1 N 24 32 13 17 1014.3 1014.3 0.0
18/10:30pm 12.4 7.1 8.5 77 1.9 NNW 26 37 14 20 1014.4 1014.4 0.0
18/10:00pm 12.5 6.8 8.2 75 2.1 NNW 28 37 15 20 1014.2 1014.2 0.0
18/09:30pm 12.4 6.6 8.1 75 2.1 NNW 28 41 15 22 1014.1 1014.1 0.0
18/09:00pm 11.8 7.1 7.9 77 1.9 NNW 22 32 12 17 1014.6 1014.6 0.0
18/08:30pm 11.8 7.0 7.5 75 2.1 NNW 22 30 12 16 1014.7 1014.7 0.0
18/08:00pm 11.4 6.9 6.9 74 2.1 NNW 20 28 11 15 1014.4 1014.4 0.0
18/07:30pm 11.9 7.0 7.0 72 2.3 NNW 22 32 12 17 1014.5 1014.5 0.0
18/07:00pm 11.8 6.5 6.7 71 2.4 N 24 32 13 17 1014.3 1014.3 0.0
18/06:30pm 11.6 6.3 6.7 72 2.3 N 24 32 13 17 1014.2 1014.2 0.0
18/06:00pm 12.3 5.7 5.9 65 3.0 NNW 30 39 16 21 1014.4 1014.4 0.0
18/05:30pm 12.4 7.2 5.6 63 3.2 NW 22 30 12 16 1014.5 1014.5 0.0
18/05:00pm 13.2 7.6 5.4 59 3.6 NW 24 35 13 19 1014.2 1014.2 0.0
18/04:30pm 13.3 8.5 5.7 60 3.6 NNW 20 30 11 16 1014.1 1014.1 0.0
18/04:00pm 13.8 9.4 4.7 54 4.2 NW 17 20 9 11 1014.3 1014.3 0.0
18/03:30pm 14.1 10.0 6.0 58 3.9 NNW 17 22 9 12 1014.3 1014.3 0.0
18/03:00pm 14.4 10.3 6.3 58 3.9 NNW 17 20 9 11 1014.5 1014.5 0.0
18/02:30pm 13.9 9.5 6.5 61 3.6 N 19 26 10 14 1014.9 1014.9 0.0
18/02:00pm 13.6 8.5 6.0 60 3.6 N 22 32 12 17 1014.9 1014.9 0.0
18/01:30pm 13.2 8.6 6.3 63 3.3 NNW 20 28 11 15 1015.3 1015.3 0.0
18/01:00pm 13.1 9.3 6.0 62 3.4 N 15 20 8 11 1016.0 1016.0 0.0
18/12:30pm 12.8 8.7 6.4 65 3.0 NNW 17 24 9 13 1016.4 1016.4 0.0
18/12:00pm 12.1 7.7 6.4 68 2.7 NW 19 28 10 15 1017.4 1017.4 0.0
18/11:30am 11.2 4.9 5.9 70 2.5 WNW 28 37 15 20 1018.0 1018.0 0.0
18/11:00am 11.3 5.8 6.0 70 2.5 NW 24 30 13 16 1018.0 1018.0 0.0
18/10:30am 11.1 6.2 7.0 76 2.0 NW 22 28 12 15 1018.5 1018.5 0.0
18/10:00am 10.4 6.6 7.6 83 1.3 NW 17 22 9 12 1018.5 1018.5 0.0
18/09:30am 9.7 6.8 8.0 89 0.8 WNW 13 17 7 9 1018.2 1018.2 0.0
18/09:00am 8.9 5.9 7.7 92 0.6 WNW 13 17 7 9 1018.0 1018.0 0.4
18/08:30am 8.3 6.5 7.9 97 0.2 NW 7 11 4 6 1018.3 1018.3 0.4
18/08:00am 7.4 4.3 7.3 99 0.0 NW 13 17 7 9 1017.7 1017.7 0.4
18/07:30am 7.4 4.2 6.8 96 0.3 NW 13 17 7 9 1017.5 1017.5 0.4
18/07:00am 7.4 3.1 7.0 97 0.2 NW 19 20 10 11 1017.4 1017.4 0.4
18/06:30am 7.1 3.2 7.0 99 0.0 NW 17 20 9 11 1016.9 1016.9 0.4
18/06:00am 6.3 3.3 5.9 97 0.2 NW 11 13 6 7 1016.6 1016.6 0.4
18/05:30am 7.7 4.6 7.3 97 0.2 NW 13 15 7 8 1016.7 1016.7 0.4
18/05:00am 8.0 4.5 7.2 95 0.4 WNW 15 17 8 9 1016.8 1016.8 0.4
18/04:30am 8.9 4.9 8.3 96 0.3 WNW 19 24 10 13 1016.9 1016.9 0.4

Latest Capital City Observations: Canberra | Sydney | Melbourne | Brisbane | Adelaide | Perth | Hobart | Darwin

Other formats

Comma delimited format used in spreadsheet applications
http://www.bom.gov.au/fwo/IDV60901/IDV60901.94854.axf

JavaScript Object Notation format (JSON) in row-major order
http://www.bom.gov.au/fwo/IDV60901/IDV60901.94854.json

Data quality

Most of these data are generated automatically and are frequently updated. Quality checks on data are not normally performed. It is possible for incorrect values to appear. Refer to information at About Latest Weather Observations and please check the disclaimer before using these data.